Time;durP1;ratioP1;P1;durP2;ratioP2;P2;SDS_P1;SDS_P2;PMS_P1;PMS_P2;Temp;Humidity;BMP_temperature;BMP_pressure;BME280_temperature;BME280_humidity;BME280_pressure;Samples;Min_cycle;Max_cycle;Signal;HPM_P1;HPM_P2
2023/01/03 00:02:18;;;;;;;28.58;15.35;;;;;;;6.75;68.53;101925.91;4971660;28;20164;-86
2023/01/03 00:04:49;;;;;;;27.38;15.60;;;;;;;6.69;68.48;101921.81;4978019;28;20035;-88
2023/01/03 00:07:32;;;;;;;25.73;15.32;;;;;;;6.74;68.38;101927.72;4979843;28;20066;-87
2023/01/03 00:10:09;;;;;;;24.77;15.43;;;;;;;6.75;68.51;101920.56;4956704;28;20078;-85
2023/01/03 00:12:39;;;;;;;26.17;15.40;;;;;;;6.73;68.21;101914.47;4969005;28;20035;-89
2023/01/03 00:15:14;;;;;;;27.13;16.10;;;;;;;6.72;68.45;101916.28;4959168;28;20091;-88
2023/01/03 00:17:41;;;;;;;25.90;15.90;;;;;;;6.69;68.35;101918.28;4979489;28;20092;-86
2023/01/03 00:20:14;;;;;;;28.35;16.10;;;;;;;6.65;68.32;101916.78;4976904;28;20060;-88
2023/01/03 00:22:44;;;;;;;28.25;16.42;;;;;;;6.51;68.45;101907.91;4959086;28;20098;-88
2023/01/03 00:25:15;;;;;;;28.83;16.45;;;;;;;6.54;68.30;101907.69;4956458;29;20047;-88
2023/01/03 00:27:52;;;;;;;29.20;16.70;;;;;;;6.50;68.49;101900.00;4974784;28;20057;-89
2023/01/03 00:30:20;;;;;;;30.55;17.75;;;;;;;6.37;68.74;101897.31;4973057;28;20027;-87
2023/01/03 00:33:07;;;;;;;29.67;17.90;;;;;;;6.37;68.99;101910.66;4972792;28;20229;-85
2023/01/03 00:35:40;;;;;;;29.20;18.38;;;;;;;6.30;68.92;101909.38;4961289;28;20062;-89
2023/01/03 00:38:12;;;;;;;30.30;17.45;;;;;;;6.26;68.96;101900.69;4967483;29;20036;-86
2023/01/03 00:40:41;;;;;;;31.20;18.92;;;;;;;6.27;68.96;101909.56;4973055;28;20031;-87
2023/01/03 00:43:29;;;;;;;30.90;18.75;;;;;;;6.08;69.07;101875.22;4964978;28;20129;-88
2023/01/03 00:46:46;;;;;;;37.45;20.15;;;;;;;6.22;69.59;101898.31;4979787;28;20087;-87
2023/01/03 00:49:19;;;;;;;35.13;20.77;;;;;;;6.20;70.01;101897.56;4959934;29;20095;-86
2023/01/03 00:52:45;;;;;;;34.97;20.58;;;;;;;6.19;69.77;101901.22;4960243;28;20027;-88
2023/01/03 00:55:40;;;;;;;34.97;19.63;;;;;;;6.15;69.44;101883.69;4965249;28;20139;-86
2023/01/03 00:58:21;;;;;;;31.63;19.27;;;;;;;5.86;69.64;101851.72;5021131;28;20441;-87
2023/01/03 01:00:51;;;;;;;35.08;19.15;;;;;;;5.98;69.52;101872.31;5042367;28;20034;-87
2023/01/03 01:03:23;;;;;;;29.33;17.48;;;;;;;5.95;69.77;101867.19;5016724;28;20037;-88
2023/01/03 01:05:57;;;;;;;32.00;17.67;;;;;;;5.96;69.76;101871.53;5016552;28;20037;-86
2023/01/03 01:08:40;;;;;;;32.97;18.02;;;;;;;5.94;69.97;101870.78;5029532;28;20120;-90
2023/01/03 01:11:13;;;;;;;30.35;17.67;;;;;;;5.93;69.77;101869.91;5012237;28;20049;-87
2023/01/03 01:14:02;;;;;;;31.98;17.70;;;;;;;5.94;69.98;101865.44;5030173;28;20045;-89
2023/01/03 01:16:32;;;;;;;30.77;16.63;;;;;;;5.85;69.85;101856.22;5018759;28;20089;-87
2023/01/03 01:18:59;;;;;;;30.38;18.08;;;;;;;5.81;70.24;101864.53;5032157;28;20093;-87
2023/01/03 01:21:29;;;;;;;32.40;17.80;;;;;;;5.78;70.16;101857.56;5025221;28;20093;-85
2023/01/03 01:23:57;;;;;;;30.13;17.90;;;;;;;5.82;70.29;101867.06;5036196;28;20046;-84
2023/01/03 01:26:24;;;;;;;32.75;18.73;;;;;;;5.72;70.48;101850.81;5024210;28;20045;-85
2023/01/03 01:28:52;;;;;;;31.58;18.40;;;;;;;5.70;70.47;101844.72;5030007;28;20049;-85
2023/01/03 01:31:21;;;;;;;30.77;18.83;;;;;;;5.77;70.27;101860.34;5006372;28;20097;-89
2023/01/03 01:33:58;;;;;;;30.45;18.33;;;;;;;5.72;70.39;101860.66;5007624;28;20110;-89
2023/01/03 01:36:29;;;;;;;30.58;18.55;;;;;;;5.72;70.43;101853.50;5014808;28;20095;-89
2023/01/03 01:39:08;;;;;;;35.00;19.33;;;;;;;5.68;70.53;101849.31;5009444;28;20094;-88
2023/01/03 01:45:05;;;;;;;36.22;20.77;;;;;;;5.70;70.93;101846.53;5025595;28;20462;-87
2023/01/03 01:48:02;;;;;;;35.03;20.17;;;;;;;5.69;70.99;101844.84;5028667;28;20025;-88
2023/01/03 01:50:52;;;;;;;34.53;20.02;;;;;;;5.39;71.41;101821.00;5024928;28;20105;-88
2023/01/03 01:53:45;;;;;;;39.70;22.48;;;;;;;5.47;71.53;101840.03;5027688;28;20026;-88
2023/01/03 01:56:37;;;;;;;41.22;24.50;;;;;;;5.49;71.59;101838.97;5022535;28;20037;-87
2023/01/03 01:59:04;;;;;;;43.03;24.52;;;;;;;5.46;71.89;101835.66;5003359;28;20038;-89
2023/01/03 02:01:42;;;;;;;42.28;24.10;;;;;;;5.41;71.88;101819.09;4981637;28;20030;-88
2023/01/03 02:04:17;;;;;;;44.92;25.50;;;;;;;5.48;71.98;101831.94;5045015;28;20017;-86
2023/01/03 02:06:46;;;;;;;43.47;24.20;;;;;;;5.33;72.03;101829.41;5007335;28;20105;-88
2023/01/03 02:09:14;;;;;;;42.38;25.42;;;;;;;5.19;72.60;101819.59;4996370;28;20334;-89
2023/01/03 02:15:37;;;;;;;49.20;24.08;;;;;;;5.16;72.89;101828.66;5014498;28;20088;-86
2023/01/03 02:18:50;;;;;;;44.60;24.48;;;;;;;5.14;73.07;101822.56;5020760;28;20038;-89
2023/01/03 02:21:46;;;;;;;43.85;24.85;;;;;;;5.02;73.16;101810.03;5028702;28;20052;-87
2023/01/03 02:24:38;;;;;;;42.33;25.35;;;;;;;5.08;73.53;101828.31;5026524;28;20029;-87
2023/01/03 02:27:55;;;;;;;44.88;25.33;;;;;;;5.05;73.72;101828.47;5003262;28;20575;-87
2023/01/03 02:30:37;;;;;;;44.75;23.92;;;;;;;4.93;74.06;101821.25;4945786;28;20047;-89
2023/01/03 02:33:43;;;;;;;40.40;23.90;;;;;;;5.01;74.21;101829.63;5011952;28;20057;-88
2023/01/03 02:36:58;;;;;;;42.53;23.58;;;;;;;5.00;74.11;101830.59;5022572;28;20048;-86
2023/01/03 02:40:03;;;;;;;41.85;23.73;;;;;;;4.98;74.40;101812.00;5023596;28;20049;-86
2023/01/03 02:42:56;;;;;;;40.00;23.95;;;;;;;4.99;74.49;101826.22;5014204;28;20029;-87
2023/01/03 02:45:41;;;;;;;42.30;23.70;;;;;;;4.94;74.50;101826.50;5028671;28;20028;-86
2023/01/03 02:48:31;;;;;;;46.28;25.05;;;;;;;4.89;75.03;101822.41;5022237;28;20025;-86
2023/01/03 02:50:58;;;;;;;40.05;24.02;;;;;;;4.78;75.45;101807.94;5029010;28;20487;-86
2023/01/03 02:53:27;;;;;;;43.00;23.77;;;;;;;4.90;75.30;101824.97;5009571;28;20061;-88
2023/01/03 02:55:59;;;;;;;46.45;24.60;;;;;;;4.79;75.28;101806.97;5011767;28;20029;-89
2023/01/03 02:58:27;;;;;;;45.13;26.40;;;;;;;4.79;75.69;101814.13;5018868;28;20085;-86
2023/01/03 03:00:54;;;;;;;48.83;25.70;;;;;;;4.82;75.21;101806.81;5025526;28;20041;-88
2023/01/03 03:03:26;;;;;;;45.42;25.48;;;;;;;4.65;75.66;101814.97;5028604;28;20016;-87
2023/01/03 03:06:17;;;;;;;39.28;23.65;;;;;;;4.73;75.26;101823.38;5008994;28;20097;-87
2023/01/03 03:08:52;;;;;;;47.20;23.77;;;;;;;4.52;75.50;101806.00;5026210;28;20075;-87
2023/01/03 03:14:16;;;;;;;43.90;23.92;;;;;;;4.32;75.83;101797.44;5027727;28;20052;-86
2023/01/03 03:16:48;;;;;;;38.25;23.20;;;;;;;4.40;75.74;101800.50;5017779;28;20045;-86
2023/01/03 03:25:34;;;;;;;40.95;23.20;;;;;;;4.14;76.36;101778.09;5005678;28;20053;-88
2023/01/03 03:31:23;;;;;;;42.28;23.65;;;;;;;4.37;76.60;101805.16;5000347;28;20045;-86
2023/01/03 03:34:11;;;;;;;52.97;24.52;;;;;;;4.42;76.34;101814.59;4988442;28;20031;-86
2023/01/03 03:36:52;;;;;;;46.20;24.92;;;;;;;4.44;76.28;101807.34;4985817;28;20026;-87
2023/01/03 03:45:31;;;;;;;38.88;22.48;;;;;;;4.42;76.70;101819.03;5010428;28;20064;-87
2023/01/03 03:48:11;;;;;;;40.40;23.00;;;;;;;4.34;76.52;101811.50;4973718;28;20177;-88
2023/01/03 03:50:41;;;;;;;42.72;23.30;;;;;;;4.17;76.53;101787.72;4998340;28;20038;-85
2023/01/03 03:53:07;;;;;;;42.67;23.75;;;;;;;4.32;76.71;101808.09;4969449;28;20055;-86
2023/01/03 03:55:47;;;;;;;40.38;23.15;;;;;;;4.38;75.93;101802.41;4975158;28;20030;-90
2023/01/03 03:58:46;;;;;;;39.55;22.63;;;;;;;4.32;76.27;101813.41;4997295;28;20141;-88
2023/01/03 04:01:55;;;;;;;39.08;23.17;;;;;;;4.26;76.35;101811.13;4998455;28;20048;-88
2023/01/03 04:04:58;;;;;;;40.50;21.52;;;;;;;4.14;77.27;101819.81;4998279;28;20028;-86
2023/01/03 04:07:28;;;;;;;43.97;23.02;;;;;;;4.12;77.23;101805.75;4964251;28;20045;-85
2023/01/03 04:10:19;;;;;;;44.70;23.33;;;;;;;4.28;76.71;101811.88;4968804;28;20050;-86
2023/01/03 04:12:49;;;;;;;39.97;22.73;;;;;;;4.33;76.22;101815.16;4986025;28;20034;-89
2023/01/03 04:15:16;;;;;;;44.60;23.63;;;;;;;4.35;75.87;101815.88;4996848;28;20217;-86
2023/01/03 04:17:45;;;;;;;40.10;23.40;;;;;;;4.40;75.56;101816.47;4997929;28;20038;-86
2023/01/03 04:20:19;;;;;;;41.22;23.35;;;;;;;4.47;75.30;101816.94;4963850;28;20080;-85
2023/01/03 04:23:04;;;;;;;41.53;22.83;;;;;;;4.40;75.79;101819.16;4988798;28;20042;-85
2023/01/03 04:25:37;;;;;;;38.33;22.05;;;;;;;4.33;75.97;101820.47;4999157;28;20066;-88
2023/01/03 04:28:28;;;;;;;43.53;23.05;;;;;;;4.29;76.36;101818.94;5001977;28;20054;-88
2023/01/03 04:31:13;;;;;;;55.22;27.92;;;;;;;4.13;76.94;101811.00;5002394;28;20133;-87
2023/01/03 04:33:44;;;;;;;62.65;33.67;;;;;;;4.12;77.27;101814.63;4983568;28;20034;-85
2023/01/03 04:36:12;;;;;;;74.10;40.85;;;;;;;4.04;77.64;101816.00;4996767;28;20038;-87
2023/01/03 04:38:40;;;;;;;95.47;44.80;;;;;;;3.89;77.80;101810.66;4988780;28;20043;-86
2023/01/03 04:41:30;;;;;;;82.38;40.35;;;;;;;3.97;77.85;101819.03;4988814;28;20041;-87
2023/01/03 04:44:03;;;;;;;69.10;34.10;;;;;;;4.04;77.23;101821.34;5011282;28;20052;-88
2023/01/03 04:46:37;;;;;;;61.20;31.88;;;;;;;3.75;77.59;101795.50;4997253;28;20086;-87
2023/01/03 04:49:08;;;;;;;60.75;30.08;;;;;;;3.78;77.69;101807.75;5017138;28;20030;-89
2023/01/03 04:51:37;;;;;;;50.85;28.52;;;;;;;3.92;77.37;101821.09;5040509;23;20042;-88
2023/01/03 04:54:03;;;;;;;46.45;26.65;;;;;;;3.76;77.86;101815.81;4997692;28;20562;-89
2023/01/03 04:56:37;;;;;;;50.03;26.52;;;;;;;3.80;77.60;101821.81;4973388;28;20060;-88
2023/01/03 04:59:04;;;;;;;51.22;26.10;;;;;;;3.75;77.84;101821.25;4977625;28;20030;-87
2023/01/03 05:01:35;;;;;;;42.25;23.88;;;;;;;3.81;77.71;101823.53;4998153;28;20086;-87
2023/01/03 05:04:20;;;;;;;48.45;25.33;;;;;;;3.83;77.59;101821.63;5008770;28;20032;-91
2023/01/03 05:06:55;;;;;;;58.78;27.77;;;;;;;3.72;77.75;101818.72;4994733;28;20045;-89
2023/01/03 05:09:28;;;;;;;64.35;32.22;;;;;;;3.67;78.12;101816.34;4979008;28;20365;-86
2023/01/03 05:12:14;;;;;;;64.03;36.58;;;;;;;3.72;77.94;101818.72;5087835;23;20114;-88
2023/01/03 05:14:42;;;;;;;86.20;41.53;;;;;;;3.50;79.02;101801.34;4992857;28;20113;-83
2023/01/03 05:17:08;;;;;;;99.10;46.53;;;;;;;3.64;78.30;101805.03;4972628;28;20100;-84
2023/01/03 05:19:34;;;;;;;90.35;47.92;;;;;;;3.54;78.48;101796.72;4991039;28;20094;-83
2023/01/03 05:27:31;;;;;;;122.57;54.90;;;;;;;3.64;79.21;101826.31;4988935;28;20144;-85
2023/01/03 05:29:58;;;;;;;111.90;54.13;;;;;;;3.71;78.77;101822.34;4963636;28;20050;-84
2023/01/03 05:32:26;;;;;;;114.35;55.17;;;;;;;3.66;78.72;101819.09;4987469;28;20044;-84
2023/01/03 05:34:52;;;;;;;119.45;54.28;;;;;;;3.60;79.36;101820.28;4966113;28;20038;-83
2023/01/03 05:37:18;;;;;;;110.87;53.00;;;;;;;3.69;78.90;101830.41;4968999;28;20027;-83
2023/01/03 05:39:45;;;;;;;;;;;;;;;3.70;79.09;101820.63;4988551;28;20646;-84
2023/01/03 05:42:10;;;;;;;106.80;50.45;;;;;;;3.62;79.21;101822.88;4991615;28;19913;-83
2023/01/03 05:44:40;;;;;;;102.88;54.05;;;;;;;3.62;79.25;101817.56;4979771;28;20046;-87
2023/01/03 05:47:07;;;;;;;112.80;55.47;;;;;;;3.54;79.24;101821.50;4991362;28;20030;-85
2023/01/03 05:49:37;;;;;;;112.13;54.92;;;;;;;3.63;79.33;101829.91;4995963;28;20038;-88
2023/01/03 05:52:06;;;;;;;126.22;59.42;;;;;;;3.64;78.92;101815.66;5001603;28;20057;-88
2023/01/03 05:54:39;;;;;;;115.68;58.20;;;;;;;3.63;78.73;101808.63;4996048;28;20042;-86
2023/01/03 05:57:09;;;;;;;125.32;59.22;;;;;;;3.78;78.18;101818.38;5008319;28;20031;-90
2023/01/03 05:59:35;;;;;;;131.32;61.67;;;;;;;3.95;78.13;101842.19;5008064;28;20044;-87
2023/01/03 06:02:03;;;;;;;139.27;69.47;;;;;;;3.90;77.82;101833.63;5007786;28;20049;-85
2023/01/03 06:04:31;;;;;;;140.57;69.22;;;;;;;3.90;77.76;101828.31;4997012;28;20054;-86
2023/01/03 06:07:03;;;;;;;124.78;63.47;;;;;;;4.05;77.28;101831.00;5006098;28;20037;-88
2023/01/03 06:09:29;;;;;;;116.90;61.25;;;;;;;3.98;77.35;101836.72;4990275;28;20143;-85
2023/01/03 06:12:08;;;;;;;127.57;62.37;;;;;;;3.85;77.42;101830.38;4987088;28;20475;-89
2023/01/03 06:14:38;;;;;;;101.45;54.25;;;;;;;4.01;77.10;101831.22;5002333;28;20302;-89
2023/01/03 06:17:57;;;;;;;105.45;51.10;;;;;;;3.99;77.02;101833.09;5008958;28;20045;-87
2023/01/03 06:23:10;;;;;;;103.68;52.63;;;;;;;4.09;76.93;101832.56;5025611;28;20100;-86
2023/01/03 06:25:38;;;;;;;98.70;52.10;;;;;;;4.03;76.84;101839.13;5021562;28;20096;-85
2023/01/03 06:28:04;;;;;;;107.30;54.47;;;;;;;4.15;76.75;101849.03;5012438;28;20021;-84
2023/01/03 06:30:30;;;;;;;105.28;54.92;;;;;;;4.03;77.50;101828.47;5012981;28;20513;-84
2023/01/03 06:32:59;;;;;;;117.77;57.43;;;;;;;4.23;77.53;101845.91;4995677;28;20041;-86
2023/01/03 06:35:27;;;;;;;118.43;60.92;;;;;;;4.36;76.65;101841.56;5000935;28;20207;-84
2023/01/03 06:37:54;;;;;;;133.07;63.42;;;;;;;4.35;76.55;101818.53;5020460;28;20044;-87
2023/01/03 06:40:20;;;;;;;128.20;60.58;;;;;;;4.63;75.85;101838.19;4995125;28;20042;-83
2023/01/03 06:42:48;;;;;;;133.88;60.33;;;;;;;4.42;75.16;101803.94;5013475;28;20133;-88
2023/01/03 06:53:57;;;;;;;126.87;63.50;;;;;;;4.96;74.82;101855.72;4999404;28;20064;-85
2023/01/03 06:56:25;;;;;;;131.10;62.53;;;;;;;5.01;74.34;101837.63;5027637;28;20292;-86
2023/01/03 06:59:11;;;;;;;128.63;61.88;;;;;;;4.99;74.40;101840.41;5017051;28;20058;-90
2023/01/03 07:09:39;;;;;;;104.82;51.42;;;;;;;5.33;73.58;101835.56;5397760;23;20123;-89
2023/01/03 07:15:35;;;;;;;106.80;51.40;;;;;;;5.84;72.63;101853.66;3477586;23;20170;-90
2023/01/03 07:18:02;;;;;;;96.50;49.80;;;;;;;6.05;72.27;101849.56;5000914;28;20065;-87
2023/01/03 07:20:30;;;;;;;106.50;51.00;;;;;;;6.29;70.94;101824.84;4942130;28;20045;-88
2023/01/03 07:23:16;;;;;;;113.30;53.70;;;;;;;8.40;66.31;101845.28;4972286;28;20054;-87
2023/01/03 07:25:42;;;;;;;106.20;54.38;;;;;;;10.66;58.73;101838.50;4957040;28;20061;-85
2023/01/03 07:28:12;;;;;;;100.65;51.58;;;;;;;12.46;52.43;101836.63;4929146;28;20030;-86
2023/01/03 07:30:43;;;;;;;87.65;48.60;;;;;;;14.14;47.15;101837.34;4955834;28;20030;-84
2023/01/03 07:33:09;;;;;;;84.80;44.78;;;;;;;14.92;44.55;101828.44;4959500;28;20046;-87
2023/01/03 07:35:36;;;;;;;69.18;43.63;;;;;;;15.84;41.44;101831.31;4941475;28;20034;-85
2023/01/03 07:38:02;;;;;;;74.32;43.00;;;;;;;16.60;39.52;101815.72;4977283;28;20094;-84
2023/01/03 07:40:28;;;;;;;;;;;;;;;17.12;38.00;101839.72;4943395;28;20141;-86
2023/01/03 07:45:44;;;;;;;54.83;34.70;;;;;;;18.96;34.58;101820.69;4943386;28;20086;-86
2023/01/03 07:48:13;;;;;;;57.33;33.85;;;;;;;19.58;33.24;101826.72;4944597;28;20765;-84
2023/01/03 07:50:38;;;;;;;47.53;30.40;;;;;;;19.70;32.71;101832.53;4954712;28;20454;-85
2023/01/03 07:53:06;;;;;;;43.78;29.20;;;;;;;20.77;31.15;101829.75;4956571;28;20063;-86
2023/01/03 07:55:33;;;;;;;41.92;28.48;;;;;;;20.71;30.43;101829.69;4970486;28;20482;-85
2023/01/03 07:57:59;;;;;;;43.30;27.00;;;;;;;21.18;30.19;101826.19;4973774;28;20037;-85
2023/01/03 08:00:24;;;;;;;47.03;27.52;;;;;;;21.57;29.90;101826.59;4935404;29;20051;-88
2023/01/03 08:02:55;;;;;;;54.70;27.13;;;;;;;22.43;28.27;101809.44;4959007;28;20050;-84
2023/01/03 08:05:22;;;;;;;41.35;27.33;;;;;;;21.79;28.52;101825.38;4937449;28;20058;-84
2023/01/03 08:07:48;;;;;;;41.33;28.52;;;;;;;21.91;28.79;101823.72;4948163;28;20085;-86
2023/01/03 08:13:17;;;;;;;39.55;29.45;;;;;;;22.66;27.15;101818.06;4934881;28;20133;-84
2023/01/03 08:15:55;;;;;;;42.08;30.35;;;;;;;23.78;26.16;101826.97;4949774;28;20134;-87
2023/01/03 08:18:25;;;;;;;39.30;30.67;;;;;;;24.34;25.53;101830.78;4972929;28;20472;-85
2023/01/03 08:20:52;;;;;;;42.95;30.33;;;;;;;24.99;24.61;101830.41;4974304;28;20043;-86
2023/01/03 08:23:20;;;;;;;51.88;37.28;;;;;;;25.57;23.28;101831.00;4956878;28;20031;-85
2023/01/03 08:25:46;;;;;;;46.03;33.70;;;;;;;26.47;23.29;101830.06;4957388;28;20035;-89
2023/01/03 08:28:13;;;;;;;48.63;33.30;;;;;;;26.45;22.42;101822.00;4969845;28;20419;-87
2023/01/03 08:30:46;;;;;;;44.47;32.88;;;;;;;25.56;23.65;101796.28;4957638;28;20030;-86
2023/01/03 08:33:15;;;;;;;40.25;32.20;;;;;;;26.10;23.09;101819.22;4987995;28;20026;-86
2023/01/03 08:35:52;;;;;;;48.10;31.70;;;;;;;26.59;22.77;101817.13;4957800;28;20125;-85
2023/01/03 08:38:27;;;;;;;45.25;31.70;;;;;;;26.43;22.81;101806.78;4973297;28;20105;-86
2023/01/03 08:40:52;;;;;;;51.60;33.03;;;;;;;26.10;23.29;101803.50;4971069;28;20038;-86
2023/01/03 08:43:18;;;;;;;47.30;33.20;;;;;;;26.23;22.57;101804.41;4965676;28;20214;-86
2023/01/03 08:45:43;;;;;;;46.53;32.15;;;;;;;26.83;22.45;101815.22;4960901;28;20042;-86
2023/01/03 08:48:09;;;;;;;49.20;32.47;;;;;;;27.82;21.40;101810.59;4958723;28;20449;-85
2023/01/03 08:50:34;;;;;;;50.42;33.38;;;;;;;28.29;20.90;101797.31;4974707;28;20046;-86
2023/01/03 08:53:00;;;;;;;51.05;32.25;;;;;;;28.33;20.73;101792.13;4968497;28;20023;-86
2023/01/03 08:55:25;;;;;;;52.40;33.90;;;;;;;28.67;20.43;101786.56;4948444;28;20030;-85
2023/01/03 08:57:52;;;;;;;43.50;33.35;;;;;;;29.72;19.21;101798.41;4960801;28;20046;-85
2023/01/03 09:00:18;;;;;;;47.05;33.25;;;;;;;30.19;18.72;101786.63;4970783;28;20041;-84
2023/01/03 09:02:46;;;;;;;45.83;32.72;;;;;;;29.62;19.92;101788.03;4979724;28;20026;-86
2023/01/03 09:05:22;;;;;;;48.55;33.60;;;;;;;29.61;19.51;101786.34;4975783;28;20092;-87
2023/01/03 09:08:05;;;;;;;46.20;35.08;;;;;;;30.06;18.70;101774.06;4954358;28;20046;-86
2023/01/03 09:10:34;;;;;;;52.28;34.00;;;;;;;31.20;17.98;101762.53;4964972;28;20031;-86
2023/01/03 09:13:03;;;;;;;49.38;34.25;;;;;;;32.15;16.91;101773.25;4956137;28;20038;-87
2023/01/03 09:15:29;;;;;;;43.15;33.35;;;;;;;32.77;16.91;101767.56;4975155;28;20046;-85
2023/01/03 09:17:56;;;;;;;51.75;33.25;;;;;;;32.58;16.60;101756.22;4967358;28;20038;-85
2023/01/03 09:20:22;;;;;;;46.88;32.83;;;;;;;32.58;16.65;101734.78;4926820;29;20102;-86
2023/01/03 09:22:48;;;;;;;44.40;31.38;;;;;;;33.58;15.62;101757.16;4959607;28;20392;-87
2023/01/03 09:25:15;;;;;;;42.33;30.33;;;;;;;34.26;15.17;101748.78;4927775;28;20030;-88
2023/01/03 09:27:49;;;;;;;50.53;30.08;;;;;;;35.06;14.49;101747.28;4949379;28;20101;-87
2023/01/03 09:30:22;;;;;;;43.07;29.33;;;;;;;35.50;14.67;101737.72;4953729;28;20110;-87
2023/01/03 09:33:04;;;;;;;39.58;29.00;;;;;;;36.24;13.87;101725.84;4963621;28;20037;-88
2023/01/03 09:35:58;;;;;;;44.25;27.95;;;;;;;36.32;13.50;101729.91;4989483;28;20023;-89
2023/01/03 09:39:09;;;;;;;47.63;27.42;;;;;;;36.81;13.30;101722.78;4992874;28;20039;-92
2023/01/03 10:05:47;;;;;;;34.13;22.90;;;;;;;36.64;13.72;101670.16;5011060;23;20049;-91
2023/01/03 10:08:47;;;;;;;44.65;23.50;;;;;;;34.20;15.43;101685.75;5005149;28;20034;-91
2023/01/03 10:11:51;;;;;;;35.42;23.00;;;;;;;34.92;14.91;101687.69;4995566;28;20045;-88
2023/01/03 10:14:25;;;;;;;37.45;24.23;;;;;;;33.84;15.70;101680.53;5009325;28;20054;-90
2023/01/03 10:17:31;;;;;;;37.92;22.95;;;;;;;35.48;14.61;101658.06;5010445;28;20039;-91
2023/01/03 10:23:17;;;;;;;40.55;22.50;;;;;;;36.55;14.18;101655.25;5210338;23;20073;-90
2023/01/03 10:25:47;;;;;;;33.95;21.77;;;;;;;36.66;13.74;101639.88;5009268;28;20057;-89
2023/01/03 10:28:24;;;;;;;38.75;22.17;;;;;;;36.75;13.79;101649.19;4989668;28;20120;-87
2023/01/03 10:31:11;;;;;;;37.97;22.58;;;;;;;37.49;13.22;101650.81;5007840;28;20041;-90
2023/01/03 10:34:24;;;;;;;31.55;22.08;;;;;;;36.78;13.33;101625.31;5014395;28;20070;-91
2023/01/03 10:37:25;;;;;;;29.52;21.20;;;;;;;36.20;14.33;101635.25;5004583;28;20052;-90
2023/01/03 10:43:42;;;;;;;40.33;22.30;;;;;;;36.93;13.64;101638.16;4794894;26;20039;-94
2023/01/03 10:51:54;;;;;;;29.75;21.33;;;;;;;37.11;13.12;101606.38;4765620;26;20130;-90
2023/01/03 10:55:10;;;;;;;33.25;20.75;;;;;;;35.49;14.35;101596.25;5021833;28;20048;-91
2023/01/03 10:57:38;;;;;;;30.40;20.95;;;;;;;35.84;14.48;101623.91;5010514;28;20088;-87
2023/01/03 11:00:36;;;;;;;37.83;21.73;;;;;;;36.05;14.32;101624.31;4997920;28;20022;-88
2023/01/03 11:03:09;;;;;;;28.88;19.70;;;;;;;36.35;13.98;101612.53;4991745;28;20075;-86
2023/01/03 11:05:42;;;;;;;33.95;20.52;;;;;;;36.30;14.27;101601.44;5000592;28;20033;-89
2023/01/03 11:08:20;;;;;;;32.00;19.33;;;;;;;36.54;13.79;101603.16;4976160;28;20098;-86
2023/01/03 11:10:58;;;;;;;26.20;19.55;;;;;;;35.82;14.33;101585.03;4989079;28;20042;-84
2023/01/03 11:13:58;;;;;;;40.33;20.92;;;;;;;36.04;14.72;101595.53;4994036;28;20101;-89
2023/01/03 11:16:28;;;;;;;30.83;19.60;;;;;;;35.60;14.70;101584.88;4990648;28;20174;-85
2023/01/03 11:19:06;;;;;;;31.75;19.10;;;;;;;35.69;14.30;101595.06;4973267;28;20050;-85
2023/01/03 11:21:50;;;;;;;26.20;17.83;;;;;;;35.96;14.13;101576.63;4989943;28;20033;-83
2023/01/03 11:24:41;;;;;;;27.65;17.60;;;;;;;34.95;14.60;101575.34;4975858;28;20064;-84
2023/01/03 11:27:35;;;;;;;35.35;18.58;;;;;;;35.19;14.73;101580.00;4983562;28;20057;-83
2023/01/03 11:30:08;;;;;;;30.05;17.58;;;;;;;35.07;14.79;101580.47;4991957;28;20109;-83
2023/01/03 11:33:16;;;;;;;28.05;17.35;;;;;;;34.93;15.24;101577.59;4992649;28;20038;-83
2023/01/03 11:36:04;;;;;;;25.85;16.52;;;;;;;35.24;14.64;101572.38;4951787;29;20039;-84
2023/01/03 11:38:44;;;;;;;25.15;15.60;;;;;;;35.03;14.98;101576.63;4975095;28;20062;-82
2023/01/03 11:41:48;;;;;;;25.15;16.80;;;;;;;34.77;14.96;101573.38;4994227;28;20038;-82
2023/01/03 11:45:14;;;;;;;21.87;14.60;;;;;;;34.25;15.68;101576.03;4996994;28;20033;-84
2023/01/03 11:48:05;;;;;;;18.88;13.82;;;;;;;34.21;15.95;101575.00;4970181;28;20281;-83
2023/01/03 11:50:45;;;;;;;21.73;15.05;;;;;;;34.38;15.48;101546.59;4983123;28;20073;-82
2023/01/03 11:53:35;;;;;;;24.40;17.23;;;;;;;34.46;15.60;101552.31;4990871;28;20126;-83
2023/01/03 11:56:29;;;;;;;24.23;16.52;;;;;;;33.93;15.97;101566.38;4989661;28;20548;-84
2023/01/03 11:59:39;;;;;;;29.35;18.35;;;;;;;33.18;16.40;101567.66;4975408;28;20033;-83
2023/01/03 12:02:26;;;;;;;31.70;16.63;;;;;;;32.71;16.95;101559.88;4989927;28;20400;-84
2023/01/03 12:05:28;;;;;;;25.85;15.10;;;;;;;32.24;17.49;101558.47;5004451;28;20026;-83
2023/01/03 12:07:56;;;;;;;27.90;16.02;;;;;;;32.05;17.87;101564.66;4997299;28;20076;-83
2023/01/03 12:10:26;;;;;;;19.50;13.52;;;;;;;31.04;18.87;101566.41;5003859;28;20108;-83
2023/01/03 12:13:13;;;;;;;25.42;14.38;;;;;;;29.80;20.62;101567.91;4990962;28;20081;-83
2023/01/03 12:15:46;;;;;;;19.17;14.93;;;;;;;28.68;22.66;101564.16;5005376;28;20517;-85
2023/01/03 12:18:39;;;;;;;19.00;15.38;;;;;;;27.64;23.83;101563.03;4990505;28;20074;-83
2023/01/03 12:21:30;;;;;;;19.77;16.02;;;;;;;26.49;25.59;101565.97;4990652;28;20066;-84
2023/01/03 12:24:39;;;;;;;21.75;15.63;;;;;;;25.44;27.59;101574.09;4977356;28;20026;-85
2023/01/03 12:27:20;;;;;;;19.77;15.98;;;;;;;24.86;28.28;101566.53;4992407;28;20030;-84
2023/01/03 12:30:03;;;;;;;22.33;16.02;;;;;;;24.84;28.48;101569.53;4973976;28;20120;-83
2023/01/03 12:33:03;;;;;;;21.08;16.02;;;;;;;24.37;29.33;101562.94;4995873;28;20064;-85
2023/01/03 12:35:52;;;;;;;22.40;16.33;;;;;;;24.27;29.86;101568.97;4988332;28;20042;-84
2023/01/03 12:38:20;;;;;;;20.67;15.93;;;;;;;23.91;30.55;101558.84;4979903;28;20109;-85
2023/01/03 12:41:18;;;;;;;22.75;15.88;;;;;;;23.69;31.15;101566.63;4958627;28;20131;-83
2023/01/03 12:43:49;;;;;;;24.58;17.02;;;;;;;23.16;31.53;101563.28;4954583;28;20083;-84
2023/01/03 12:46:17;;;;;;;27.67;17.65;;;;;;;23.02;32.35;101572.69;4989303;28;20483;-83
2023/01/03 12:49:17;;;;;;;26.85;17.80;;;;;;;22.82;32.50;101567.28;4992248;28;20368;-85
2023/01/03 12:51:42;;;;;;;27.55;19.30;;;;;;;22.43;33.05;101573.81;4980221;28;20046;-85
2023/01/03 12:54:23;;;;;;;25.92;18.15;;;;;;;22.45;33.17;101567.09;4974588;28;20026;-84
2023/01/03 12:57:27;;;;;;;29.08;18.58;;;;;;;22.23;33.22;101571.16;4993332;28;20720;-82
2023/01/03 13:00:08;;;;;;;29.00;18.60;;;;;;;22.10;33.71;101569.28;4991861;28;20076;-82
2023/01/03 13:02:56;;;;;;;26.63;18.75;;;;;;;21.28;34.34;101572.31;4990978;28;20042;-83
2023/01/03 13:05:37;;;;;;;29.00;19.85;;;;;;;21.35;34.70;101574.19;4991570;28;20022;-83
2023/01/03 13:08:11;;;;;;;26.73;18.30;;;;;;;21.04;35.43;101575.66;4992475;28;20038;-83
2023/01/03 13:10:40;;;;;;;22.40;17.35;;;;;;;20.67;35.78;101566.94;4992203;28;20022;-82
2023/01/03 13:13:11;;;;;;;22.45;17.30;;;;;;;20.25;36.92;101566.13;4974686;28;20030;-84
2023/01/03 13:15:38;;;;;;;23.58;17.02;;;;;;;19.94;37.80;101572.88;4990188;28;20030;-84
2023/01/03 13:18:21;;;;;;;26.55;16.30;;;;;;;19.76;38.36;101578.88;4974468;28;20329;-86
2023/01/03 13:20:52;;;;;;;21.83;16.60;;;;;;;19.23;39.80;101569.41;4984099;28;20118;-84
2023/01/03 13:23:33;;;;;;;25.20;16.50;;;;;;;19.04;40.35;101582.66;4974008;28;20120;-84
2023/01/03 13:26:05;;;;;;;22.83;16.25;;;;;;;18.75;41.30;101583.56;4989403;28;20405;-84
2023/01/03 13:28:34;;;;;;;22.98;15.82;;;;;;;18.52;41.81;101587.28;4989796;28;20022;-83
2023/01/03 13:31:21;;;;;;;24.20;16.83;;;;;;;18.27;42.39;101584.03;4988692;28;20022;-83
2023/01/03 13:34:08;;;;;;;22.42;16.75;;;;;;;17.83;43.30;101565.84;5001646;28;20463;-82
2023/01/03 13:37:05;;;;;;;27.35;16.42;;;;;;;17.62;44.02;101576.56;4982238;28;20043;-83